createdAt,value
2022-07-30T00:00:36.094Z,61.96
2022-07-30T00:03:04.923Z,62.39
2022-07-30T00:05:33.684Z,62.41
2022-07-30T00:08:02.552Z,63.49
2022-07-30T00:10:31.365Z,63.52
2022-07-30T00:13:00.146Z,63.64
2022-07-30T00:15:30.510Z,64.00
2022-07-30T00:17:59.256Z,64.42
2022-07-30T00:20:29.129Z,64.89
2022-07-30T00:22:58.077Z,64.78
2022-07-30T00:25:27.014Z,64.62
2022-07-30T00:27:55.678Z,65.59
2022-07-30T00:30:24.715Z,65.48
2022-07-30T00:32:55.950Z,65.18
2022-07-30T00:35:24.831Z,65.31
2022-07-30T00:37:56.457Z,65.10
2022-07-30T00:40:25.415Z,65.44
2022-07-30T00:42:54.216Z,65.21
2022-07-30T00:45:23.343Z,65.60
2022-07-30T00:47:52.140Z,65.75
2022-07-30T00:50:22.390Z,65.71
2022-07-30T00:52:51.181Z,65.47
2022-07-30T00:55:20.234Z,66.33
2022-07-30T00:57:48.954Z,65.83
2022-07-30T01:00:20.631Z,66.21
2022-07-30T01:02:49.571Z,66.11
2022-07-30T01:05:18.534Z,66.22
2022-07-30T01:07:48.677Z,66.28
2022-07-30T01:10:17.753Z,66.71
2022-07-30T01:12:47.901Z,66.65
2022-07-30T01:15:17.989Z,67.88
2022-07-30T01:17:52.920Z,67.59
2022-07-30T01:20:30.111Z,68.15
2022-07-30T01:23:11.866Z,68.36
2022-07-30T01:25:58.166Z,68.99
2022-07-30T01:28:33.630Z,69.15
2022-07-30T01:31:05.084Z,69.49
2022-07-30T01:33:38.613Z,70.40
2022-07-30T01:36:14.308Z,70.24
2022-07-30T01:38:47.104Z,70.56
2022-07-30T01:41:19.407Z,70.28
2022-07-30T01:43:48.964Z,70.19
2022-07-30T01:46:20.425Z,71.39
2022-07-30T01:48:52.951Z,71.48
2022-07-30T01:51:21.960Z,71.32
2022-07-30T01:53:55.411Z,71.10
2022-07-30T01:56:27.609Z,71.49
2022-07-30T01:59:00.241Z,71.71
2022-07-30T02:01:30.482Z,72.21
2022-07-30T02:04:04.587Z,72.11
2022-07-30T02:06:43.574Z,72.01
2022-07-30T02:09:23.424Z,71.10
2022-07-30T02:12:14.896Z,71.29
2022-07-30T02:14:51.284Z,71.46
2022-07-30T02:17:30.491Z,71.51
2022-07-30T02:20:11.946Z,71.85
2022-07-30T02:22:48.421Z,71.56
2022-07-30T02:25:22.021Z,71.84
2022-07-30T02:27:58.620Z,71.44
2022-07-30T02:30:31.901Z,72.38
2022-07-30T02:33:08.453Z,71.87
2022-07-30T02:35:39.616Z,71.72
2022-07-30T02:38:10.472Z,72.25
2022-07-30T02:40:44.699Z,72.50
2022-07-30T02:43:17.426Z,72.41
2022-07-30T02:45:49.838Z,71.98
2022-07-30T02:48:34.662Z,72.14
2022-07-30T02:51:07.841Z,71.77
2022-07-30T02:53:39.660Z,71.94
2022-07-30T02:56:10.924Z,72.06
2022-07-30T02:58:43.361Z,72.18
2022-07-30T03:01:16.797Z,72.36
2022-07-30T03:03:47.797Z,72.58
2022-07-30T03:06:17.703Z,72.71
2022-07-30T03:08:47.745Z,72.68
2022-07-30T03:11:20.239Z,73.17
2022-07-30T03:13:51.425Z,72.85
2022-07-30T03:16:23.682Z,73.14
2022-07-30T03:18:55.937Z,73.28
2022-07-30T03:21:28.913Z,73.20
2022-07-30T03:24:03.354Z,73.00
2022-07-30T03:26:36.555Z,73.27
2022-07-30T03:29:10.678Z,73.59
2022-07-30T03:31:42.893Z,73.67
2022-07-30T03:34:14.711Z,73.40
2022-07-30T03:36:43.707Z,73.03
2022-07-30T03:39:13.677Z,73.56
2022-07-30T03:41:42.926Z,73.74
2022-07-30T03:44:17.794Z,73.81
2022-07-30T03:46:50.614Z,73.86
2022-07-30T03:49:22.748Z,73.51
2022-07-30T03:54:54.585Z,73.20
2022-07-30T03:57:41.915Z,73.51
2022-07-30T04:00:17.331Z,72.55
2022-07-30T04:02:52.421Z,72.26
2022-07-30T04:05:47.274Z,72.73
2022-07-30T04:08:16.118Z,73.25
2022-07-30T04:10:46.060Z,73.87
2022-07-30T04:13:41.628Z,73.92
2022-07-30T04:16:41.643Z,74.80
2022-07-30T04:19:20.081Z,75.13
2022-07-30T04:21:52.111Z,74.79
2022-07-30T04:24:23.484Z,75.24
2022-07-30T04:26:53.563Z,74.72
2022-07-30T04:29:24.724Z,74.91
2022-07-30T04:31:57.739Z,75.27
2022-07-30T04:34:55.675Z,75.16
2022-07-30T04:37:44.283Z,75.46
2022-07-30T04:40:13.298Z,76.76
2022-07-30T04:42:42.075Z,76.51
2022-07-30T04:45:13.422Z,77.54
2022-07-30T04:48:04.002Z,76.59
2022-07-30T04:50:58.763Z,76.83
2022-07-30T04:53:29.969Z,76.54
2022-07-30T04:56:05.509Z,76.46
2022-07-30T04:58:37.524Z,76.28
2022-07-30T05:01:07.340Z,76.17
2022-07-30T05:03:41.336Z,76.23
2022-07-30T05:06:14.050Z,76.18
2022-07-30T05:08:43.888Z,76.35
2022-07-30T05:11:14.460Z,76.49
2022-07-30T05:13:46.096Z,75.94
2022-07-30T05:16:17.395Z,76.48
2022-07-30T05:18:47.904Z,76.38
2022-07-30T05:21:17.270Z,76.23
2022-07-30T05:23:50.120Z,76.20
2022-07-30T05:26:54.604Z,76.83
2022-07-30T05:29:24.865Z,76.59
2022-07-30T05:32:02.698Z,76.81
2022-07-30T05:34:36.351Z,76.92
2022-07-30T05:37:29.850Z,76.59
2022-07-30T05:40:03.277Z,76.37
2022-07-30T05:42:52.626Z,76.25
2022-07-30T05:45:23.747Z,76.41
2022-07-30T05:47:52.839Z,76.38
2022-07-30T05:50:24.687Z,76.74
2022-07-30T05:52:53.822Z,76.19
2022-07-30T05:55:42.626Z,75.52
2022-07-30T05:58:37.431Z,75.68
2022-07-30T06:01:07.336Z,75.48
2022-07-30T06:03:37.980Z,75.55
2022-07-30T06:06:31.984Z,74.80
2022-07-30T06:09:01.433Z,75.12
2022-07-30T06:11:34.459Z,75.07
2022-07-30T06:14:03.911Z,74.92
2022-07-30T06:16:32.910Z,74.84
2022-07-30T06:19:02.172Z,74.29
2022-07-30T06:22:01.720Z,74.56
2022-07-30T06:24:37.492Z,75.15
2022-07-30T06:27:11.867Z,75.20
2022-07-30T06:29:41.409Z,75.12
2022-07-30T06:32:11.168Z,74.88
2022-07-30T06:34:40.052Z,75.21
2022-07-30T06:37:11.155Z,74.84
2022-07-30T06:39:57.376Z,74.47
2022-07-30T06:42:27.147Z,74.49
2022-07-30T06:45:14.694Z,74.54
2022-07-30T06:48:22.597Z,74.83
2022-07-30T06:50:51.756Z,74.89
2022-07-30T06:53:21.950Z,74.84
2022-07-30T06:56:10.683Z,74.82
2022-07-30T06:58:52.549Z,73.97
2022-07-30T07:01:39.814Z,73.91
2022-07-30T07:04:10.800Z,74.12
2022-07-30T07:06:42.148Z,74.67
2022-07-30T07:09:14.341Z,74.38
2022-07-30T07:11:52.625Z,74.35
2022-07-30T07:14:22.138Z,74.55
2022-07-30T07:16:51.261Z,74.39
2022-07-30T07:20:01.336Z,73.71
2022-07-30T07:22:36.502Z,74.04
2022-07-30T07:25:08.861Z,74.10
2022-07-30T07:27:39.192Z,73.71
2022-07-30T07:30:09.901Z,73.26
2022-07-30T07:32:39.679Z,72.77
2022-07-30T07:35:10.166Z,73.22
2022-07-30T07:37:45.585Z,73.14
2022-07-30T07:40:23.298Z,72.58
2022-07-30T07:42:53.678Z,72.68
2022-07-30T07:45:23.914Z,72.20
2022-07-30T07:48:06.251Z,72.68
2022-07-30T07:50:47.406Z,72.81
2022-07-30T07:53:23.905Z,72.36
2022-07-30T07:55:55.064Z,72.47
2022-07-30T07:58:26.879Z,72.39
2022-07-30T08:00:59.862Z,72.36
2022-07-30T08:03:49.400Z,72.86
2022-07-30T08:06:38.427Z,72.89
2022-07-30T08:09:44.005Z,73.06
2022-07-30T08:15:38.651Z,73.26
2022-07-30T08:18:14.206Z,73.60
2022-07-30T08:21:09.265Z,74.12
2022-07-30T08:23:42.525Z,73.85
2022-07-30T08:26:15.148Z,73.99
2022-07-30T08:28:45.974Z,73.60
2022-07-30T08:31:22.526Z,73.68
2022-07-30T08:33:53.053Z,72.98
2022-07-30T08:36:25.742Z,73.35
2022-07-30T08:38:59.423Z,72.93
2022-07-30T08:41:34.487Z,73.16
2022-07-30T08:44:12.641Z,73.76
2022-07-30T08:46:47.051Z,74.10
2022-07-30T08:49:35.968Z,74.33
2022-07-30T08:52:08.919Z,74.12
2022-07-30T08:54:48.000Z,74.57
2022-07-30T08:57:18.610Z,75.05
2022-07-30T08:59:59.907Z,75.11
2022-07-30T09:02:34.254Z,75.78
2022-07-30T09:05:11.221Z,75.18
2022-07-30T09:07:41.859Z,74.95
2022-07-30T09:10:17.546Z,75.10
2022-07-30T09:12:49.084Z,75.14
2022-07-30T09:15:44.034Z,74.25
2022-07-30T09:18:14.901Z,74.71
2022-07-30T09:20:47.378Z,73.69
2022-07-30T09:23:16.735Z,73.45
2022-07-30T09:26:04.405Z,73.60
2022-07-30T09:29:23.039Z,73.47
2022-07-30T09:32:12.726Z,73.23
2022-07-30T09:35:16.788Z,73.23
2022-07-30T09:38:18.467Z,73.11
2022-07-30T09:41:08.071Z,73.95
2022-07-30T09:43:54.581Z,73.96
2022-07-30T09:46:51.193Z,74.14
2022-07-30T09:49:29.579Z,73.89
2022-07-30T09:52:02.907Z,73.46
2022-07-30T09:54:53.096Z,74.10
2022-07-30T09:57:28.608Z,74.23
2022-07-30T10:03:46.562Z,74.42
2022-07-30T10:06:42.021Z,75.41
2022-07-30T10:09:37.307Z,74.95
2022-07-30T10:12:11.575Z,75.27
2022-07-30T10:14:49.859Z,75.08
2022-07-30T10:17:23.384Z,75.87
2022-07-30T10:20:17.147Z,76.17
2022-07-30T10:23:09.496Z,75.99
2022-07-30T10:25:49.061Z,76.39
2022-07-30T10:28:44.325Z,75.91
2022-07-30T10:31:49.158Z,76.17
2022-07-30T10:34:05.997Z,75.77
2022-07-30T10:36:39.259Z,76.14
2022-07-30T10:39:15.278Z,76.47
2022-07-30T10:42:04.816Z,76.92
2022-07-30T10:45:02.121Z,77.27
2022-07-30T10:47:40.413Z,77.41
2022-07-30T10:50:17.908Z,77.58
2022-07-30T10:52:54.153Z,78.07
2022-07-30T10:55:37.432Z,78.30
2022-07-30T10:58:15.465Z,78.20
2022-07-30T11:01:00.735Z,78.22
2022-07-30T11:03:41.535Z,78.31
2022-07-30T11:06:29.559Z,77.99
2022-07-30T11:08:59.487Z,77.65
2022-07-30T11:12:02.058Z,78.66
2022-07-30T11:15:07.233Z,78.42
2022-07-30T11:18:12.510Z,77.89
2022-07-30T11:20:48.740Z,77.82
2022-07-30T11:23:43.919Z,78.83
2022-07-30T11:26:50.418Z,76.70
2022-07-30T11:29:50.708Z,77.65
2022-07-30T11:32:32.138Z,77.18
2022-07-30T11:35:18.052Z,76.92
2022-07-30T11:38:02.943Z,77.96
2022-07-30T11:40:35.669Z,77.35
2022-07-30T11:43:34.693Z,77.13
2022-07-30T11:46:12.239Z,76.95
2022-07-30T11:48:59.848Z,76.95
2022-07-30T11:51:48.898Z,75.87
2022-07-30T11:57:50.649Z,75.13
2022-07-30T12:01:09.924Z,74.33
2022-07-30T12:05:13.966Z,73.63
2022-07-30T12:08:35.309Z,72.58
2022-07-30T12:11:43.516Z,72.72
2022-07-30T12:15:34.182Z,72.23
2022-07-30T12:19:19.151Z,72.07
2022-07-30T12:22:39.475Z,72.38
2022-07-30T12:25:29.465Z,71.13
2022-07-30T12:29:02.094Z,71.30
2022-07-30T12:32:43.833Z,68.52
2022-07-30T12:35:08.628Z,70.45
2022-07-30T12:37:43.702Z,71.01
2022-07-30T12:40:16.814Z,71.00
2022-07-30T12:47:37.793Z,72.92
2022-07-30T12:50:54.515Z,70.64
2022-07-30T12:53:40.525Z,70.57
2022-07-30T12:56:29.493Z,69.59
2022-07-30T12:59:39.597Z,69.44
2022-07-30T13:02:13.236Z,68.98
2022-07-30T13:05:31.251Z,67.05
2022-07-30T13:09:14.255Z,67.13
2022-07-30T13:20:46.049Z,63.65
2022-07-30T13:23:26.701Z,60.56
2022-07-30T13:26:15.491Z,59.83
2022-07-30T13:28:52.302Z,59.44
2022-07-30T13:31:42.599Z,59.68
2022-07-30T13:35:01.402Z,59.42
2022-07-30T13:41:39.406Z,59.74
2022-07-30T13:44:50.687Z,60.86
2022-07-30T13:48:44.695Z,60.52
2022-07-30T13:51:41.697Z,62.15
2022-07-30T13:55:00.981Z,62.06
2022-07-30T13:57:44.216Z,61.89
2022-07-30T14:00:39.473Z,61.56
2022-07-30T14:03:50.505Z,60.73
2022-07-30T14:10:57.502Z,62.57
2022-07-30T14:13:54.362Z,63.66
2022-07-30T14:20:25.090Z,63.02
2022-07-30T14:23:33.959Z,63.24
2022-07-30T14:27:03.407Z,62.87
2022-07-30T14:29:50.679Z,62.58
2022-07-30T14:32:19.516Z,63.04
2022-07-30T14:34:49.452Z,62.67
2022-07-30T14:37:18.767Z,62.36
2022-07-30T14:39:48.912Z,63.04
2022-07-30T14:42:24.737Z,62.39
2022-07-30T14:45:00.418Z,62.29
2022-07-30T14:47:31.156Z,61.03
2022-07-30T14:50:07.730Z,60.42
2022-07-30T14:52:42.826Z,59.90
2022-07-30T14:55:25.191Z,60.48
2022-07-30T14:58:06.355Z,60.24
2022-07-30T15:00:48.947Z,59.47
2022-07-30T15:03:19.796Z,59.14
2022-07-30T15:05:59.943Z,58.76
2022-07-30T15:08:31.993Z,59.49
2022-07-30T15:11:07.884Z,60.01
2022-07-30T15:13:50.257Z,60.39
2022-07-30T15:16:27.684Z,60.47
2022-07-30T15:18:58.958Z,60.33
2022-07-30T15:21:27.982Z,59.45
2022-07-30T15:23:57.256Z,59.43
2022-07-30T15:26:26.130Z,59.59
2022-07-30T15:28:56.384Z,59.60
2022-07-30T15:31:25.261Z,59.32
2022-07-30T15:33:53.995Z,58.59
2022-07-30T15:36:22.764Z,58.65
2022-07-30T15:38:51.510Z,59.42
2022-07-30T15:41:20.517Z,59.61
2022-07-30T15:43:49.377Z,59.25
2022-07-30T15:46:19.491Z,60.02
2022-07-30T15:48:48.348Z,60.24
2022-07-30T15:51:17.223Z,61.07
2022-07-30T15:53:46.556Z,61.50
2022-07-30T15:56:15.818Z,62.28
2022-07-30T15:58:56.200Z,62.92
2022-07-30T16:01:26.515Z,62.75
2022-07-30T16:03:56.769Z,62.40
2022-07-30T16:06:27.664Z,62.14
2022-07-30T16:08:56.666Z,61.76
2022-07-30T16:11:26.929Z,62.27
2022-07-30T16:13:58.787Z,61.96
2022-07-30T16:16:38.339Z,62.41
2022-07-30T16:19:08.233Z,62.04
2022-07-30T16:21:44.267Z,61.84
2022-07-30T16:24:13.046Z,61.14
2022-07-30T16:26:42.066Z,61.26
2022-07-30T16:29:16.347Z,60.66
2022-07-30T16:31:47.193Z,61.05
2022-07-30T16:34:16.154Z,61.71
2022-07-30T16:36:47.076Z,61.62
2022-07-30T16:39:20.175Z,60.85
2022-07-30T16:41:48.982Z,61.27
2022-07-30T16:44:18.978Z,61.57
2022-07-30T16:46:49.392Z,61.97
2022-07-30T16:49:18.304Z,62.05
2022-07-30T16:51:47.292Z,61.91
2022-07-30T16:54:16.363Z,61.70
2022-07-30T16:56:45.177Z,62.49
2022-07-30T16:59:19.479Z,62.52
2022-07-30T17:01:50.355Z,62.24
2022-07-30T17:04:19.298Z,61.90
2022-07-30T17:06:48.026Z,61.93
2022-07-30T17:09:41.783Z,62.55
2022-07-30T17:12:12.517Z,62.58
2022-07-30T17:14:43.010Z,62.22
2022-07-30T17:17:14.420Z,62.38
2022-07-30T17:19:44.266Z,62.80
2022-07-30T17:22:20.128Z,62.63
2022-07-30T17:25:03.885Z,62.74
2022-07-30T17:27:47.073Z,63.77
2022-07-30T17:33:56.398Z,64.73
2022-07-30T17:36:27.204Z,64.95
2022-07-30T17:38:57.270Z,64.79
2022-07-30T17:41:27.236Z,64.36
2022-07-30T17:44:07.020Z,64.37
2022-07-30T17:46:36.350Z,64.12
2022-07-30T17:49:12.272Z,64.87
2022-07-30T17:51:44.726Z,64.96
2022-07-30T17:54:13.904Z,65.59
2022-07-30T17:56:49.296Z,66.00
2022-07-30T17:59:18.107Z,65.91
2022-07-30T18:02:04.439Z,66.21
2022-07-30T18:04:37.853Z,66.21
2022-07-30T18:07:11.668Z,66.49
2022-07-30T18:09:46.838Z,67.26
2022-07-30T18:12:19.879Z,67.38
2022-07-30T18:15:01.688Z,67.08
2022-07-30T18:17:33.354Z,66.70
2022-07-30T18:20:19.796Z,67.21
2022-07-30T18:22:55.456Z,66.70
2022-07-30T18:25:26.585Z,67.24
2022-07-30T18:27:58.356Z,67.42
2022-07-30T18:30:34.547Z,67.31
2022-07-30T18:33:07.539Z,67.21
2022-07-30T18:35:41.126Z,67.55
2022-07-30T18:38:11.565Z,67.72
2022-07-30T18:40:43.775Z,67.82
2022-07-30T18:43:13.481Z,68.30
2022-07-30T18:45:45.082Z,68.35
2022-07-30T18:48:21.843Z,68.31
2022-07-30T18:50:57.877Z,68.60
2022-07-30T18:53:36.637Z,68.46
2022-07-30T18:56:34.834Z,68.67
2022-07-30T18:59:08.046Z,69.28
2022-07-30T19:02:11.906Z,69.40
2022-07-30T19:04:43.096Z,70.15
2022-07-30T19:07:16.234Z,70.30
2022-07-30T19:09:48.232Z,70.41
2022-07-30T19:12:22.309Z,70.51
2022-07-30T19:14:51.638Z,70.79
2022-07-30T19:17:46.597Z,70.64
2022-07-30T19:20:14.697Z,70.59
2022-07-30T19:22:47.103Z,70.62
2022-07-30T19:25:18.230Z,70.80
2022-07-30T19:27:48.188Z,70.85
2022-07-30T19:30:18.070Z,70.90
2022-07-30T19:32:50.192Z,70.65
2022-07-30T19:35:20.148Z,71.18
2022-07-30T19:37:51.490Z,70.95
2022-07-30T19:40:21.988Z,71.17
2022-07-30T19:42:52.638Z,71.19
2022-07-30T19:45:26.469Z,71.12
2022-07-30T19:48:29.701Z,71.17
2022-07-30T19:51:05.478Z,71.64
2022-07-30T19:53:47.122Z,70.61
2022-07-30T19:56:16.706Z,71.17
2022-07-30T19:58:46.497Z,70.63
2022-07-30T20:01:16.949Z,71.48
2022-07-30T20:03:46.741Z,71.54
2022-07-30T20:06:17.018Z,71.30
2022-07-30T20:08:49.753Z,71.19
2022-07-30T20:11:20.955Z,70.80
2022-07-30T20:14:04.190Z,70.89
2022-07-30T20:16:33.570Z,70.80
2022-07-30T20:19:04.753Z,71.05
2022-07-30T20:21:56.565Z,71.59
2022-07-30T20:24:28.046Z,71.62
2022-07-30T20:26:58.089Z,71.94
2022-07-30T20:29:27.688Z,71.77
2022-07-30T20:31:59.612Z,71.62
2022-07-30T20:34:30.876Z,71.54
2022-07-30T20:37:04.308Z,71.24
2022-07-30T20:39:52.251Z,71.59
2022-07-30T20:42:24.259Z,71.33
2022-07-30T20:44:57.114Z,71.42
2022-07-30T20:47:34.564Z,71.06
2022-07-30T20:50:10.997Z,71.11
2022-07-30T20:52:46.426Z,71.20
2022-07-30T20:55:22.091Z,71.61
2022-07-30T20:57:58.745Z,71.21
2022-07-30T21:00:34.127Z,71.75
2022-07-30T21:03:03.701Z,71.87
2022-07-30T21:05:32.656Z,71.76
2022-07-30T21:08:01.375Z,72.17
2022-07-30T21:10:31.461Z,72.62
2022-07-30T21:13:03.760Z,71.98
2022-07-30T21:15:37.245Z,72.41
2022-07-30T21:18:25.972Z,72.45
2022-07-30T21:20:56.893Z,71.99
2022-07-30T21:23:27.083Z,71.99
2022-07-30T21:26:01.638Z,72.25
2022-07-30T21:28:35.175Z,71.99
2022-07-30T21:31:07.172Z,72.63
2022-07-30T21:33:37.393Z,72.45
2022-07-30T21:36:10.502Z,73.23
2022-07-30T21:38:41.877Z,72.91
2022-07-30T21:41:14.145Z,72.66
2022-07-30T21:43:45.264Z,72.68
2022-07-30T21:46:15.593Z,72.43
2022-07-30T21:48:56.692Z,73.41
2022-07-30T21:51:28.802Z,73.17
2022-07-30T21:53:59.117Z,73.31
2022-07-30T21:56:29.537Z,73.13
2022-07-30T21:58:58.840Z,73.37
2022-07-30T22:01:29.112Z,73.38
2022-07-30T22:04:07.863Z,73.32
2022-07-30T22:06:41.215Z,73.02
2022-07-30T22:09:19.479Z,72.94
2022-07-30T22:12:09.353Z,73.18
2022-07-30T22:14:40.854Z,73.06
2022-07-30T22:17:22.475Z,73.34
2022-07-30T22:19:54.580Z,73.18
2022-07-30T22:22:27.270Z,73.42
2022-07-30T22:24:59.875Z,72.97
2022-07-30T22:27:39.615Z,73.19
2022-07-30T22:30:14.179Z,73.26
2022-07-30T22:32:43.547Z,72.92
2022-07-30T22:35:16.319Z,73.41
2022-07-30T22:37:46.059Z,73.03
2022-07-30T22:40:15.189Z,73.28
2022-07-30T22:42:49.897Z,73.57
2022-07-30T22:45:44.843Z,73.24
2022-07-30T22:48:11.116Z,73.66
2022-07-30T22:50:41.014Z,73.53
2022-07-30T22:53:23.273Z,73.51
2022-07-30T22:55:59.453Z,73.83
2022-07-30T22:58:30.020Z,73.84
2022-07-30T23:00:58.784Z,73.84
2022-07-30T23:03:27.565Z,73.61
2022-07-30T23:05:57.156Z,73.92
2022-07-30T23:08:30.397Z,73.93
2022-07-30T23:11:00.298Z,74.01
2022-07-30T23:13:30.609Z,74.25
2022-07-30T23:15:59.444Z,74.02
2022-07-30T23:18:28.927Z,74.17
2022-07-30T23:21:00.379Z,73.74
2022-07-30T23:23:30.931Z,74.31
2022-07-30T23:26:03.201Z,73.88
2022-07-30T23:28:33.724Z,73.86
2022-07-30T23:31:03.597Z,73.64
2022-07-30T23:33:34.229Z,73.91
2022-07-30T23:36:05.569Z,73.66
2022-07-30T23:38:35.011Z,73.90
2022-07-30T23:41:05.855Z,73.94
2022-07-30T23:43:36.764Z,73.93
2022-07-30T23:46:09.704Z,74.02
2022-07-30T23:48:39.933Z,73.60
2022-07-30T23:51:08.765Z,74.19
2022-07-30T23:53:37.547Z,74.04
2022-07-30T23:56:08.107Z,73.86
2022-07-30T23:58:40.669Z,74.10
